Time;durP1;ratioP1;P1;durP2;ratioP2;P2;SDS_P1;SDS_P2;PMS_P1;PMS_P2;Temp;Humidity;BMP_temperature;BMP_pressure;BME280_temperature;BME280_humidity;BME280_pressure;Samples;Min_cycle;Max_cycle;Signal;HPM_P1;HPM_P2
2022/03/20 00:00:43;;;;;;;15.52;6.90;;;4.90;99.90;;;;;;4942843;28;20072;-74
2022/03/20 00:03:11;;;;;;;15.52;6.70;;;4.90;99.90;;;;;;4981394;28;20487;-72
2022/03/20 00:05:39;;;;;;;15.77;6.53;;;4.90;99.90;;;;;;4935097;28;246824;-72
2022/03/20 00:08:09;;;;;;;13.13;6.10;;;4.90;99.90;;;;;;4959105;28;20054;-73
2022/03/20 00:11:04;;;;;;;13.48;6.55;;;4.90;99.90;;;;;;4940615;28;20141;-73
2022/03/20 00:13:31;;;;;;;16.27;6.60;;;4.80;99.90;;;;;;4977494;28;20062;-72
2022/03/20 00:15:57;;;;;;;13.15;6.28;;;4.80;99.90;;;;;;4964531;28;251521;-73
2022/03/20 00:18:26;;;;;;;14.43;6.90;;;4.80;99.90;;;;;;4980722;28;20054;-73
2022/03/20 00:20:57;;;;;;;14.60;6.60;;;4.80;99.90;;;;;;4947969;28;100344;-73
2022/03/20 00:23:24;;;;;;;17.40;6.85;;;4.70;99.90;;;;;;4977359;28;20054;-73
2022/03/20 00:25:51;;;;;;;16.38;6.70;;;4.70;99.90;;;;;;4951057;28;265817;-74
2022/03/20 00:28:20;;;;;;;14.68;7.15;;;4.70;99.90;;;;;;4986095;28;20065;-73
2022/03/20 00:30:50;;;;;;;12.75;6.40;;;4.70;99.90;;;;;;4940516;28;127593;-73
2022/03/20 00:33:16;;;;;;;13.98;7.13;;;4.70;99.90;;;;;;4968085;28;20073;-73
2022/03/20 00:35:43;;;;;;;13.95;7.07;;;4.60;99.90;;;;;;4938538;28;20722;-73
2022/03/20 00:38:09;;;;;;;14.90;7.47;;;4.60;99.90;;;;;;4979954;28;20046;-73
2022/03/20 00:40:36;;;;;;;17.02;7.03;;;4.60;99.90;;;;;;4939301;28;259568;-73
2022/03/20 00:43:03;;;;;;;15.40;7.30;;;4.50;99.90;;;;;;4970528;28;20046;-73
2022/03/20 00:45:30;;;;;;;17.65;7.78;;;4.50;99.90;;;;;;4937398;28;46703;-73
2022/03/20 00:47:56;;;;;;;15.73;7.60;;;4.50;99.90;;;;;;4966462;28;20061;-73
2022/03/20 00:50:22;;;;;;;15.20;7.88;;;4.50;99.90;;;;;;4948841;28;223488;-73
2022/03/20 00:52:49;;;;;;;14.50;7.68;;;4.40;99.90;;;;;;4983379;28;20059;-73
2022/03/20 00:55:15;;;;;;;17.35;7.70;;;4.40;99.90;;;;;;4938011;28;224770;-73
2022/03/20 00:57:41;;;;;;;14.23;7.57;;;4.40;99.90;;;;;;4955681;28;20053;-72
2022/03/20 01:00:08;;;;;;;16.50;7.63;;;4.30;99.90;;;;;;4936488;28;33641;-73
2022/03/20 01:02:42;;;;;;;15.20;7.35;;;4.30;99.90;;;;;;4980026;28;20500;-72
2022/03/20 01:05:09;;;;;;;16.60;7.10;;;4.30;99.90;;;;;;4932162;28;108972;-72
2022/03/20 01:07:36;;;;;;;13.93;6.72;;;4.20;99.90;;;;;;4966030;28;20407;-73
2022/03/20 01:10:06;;;;;;;16.55;7.88;;;4.20;99.90;;;;;;4940109;28;29937;-72
2022/03/20 01:12:34;;;;;;;14.30;7.50;;;4.20;99.90;;;;;;4951998;28;20377;-72
2022/03/20 01:15:06;;;;;;;14.93;7.85;;;4.20;99.90;;;;;;4929055;28;104052;-72
2022/03/20 01:17:32;;;;;;;16.10;7.65;;;4.10;99.90;;;;;;4958799;28;20061;-72
2022/03/20 01:19:58;;;;;;;16.17;7.50;;;4.10;99.90;;;;;;4962821;28;60507;-73
2022/03/20 01:22:24;;;;;;;15.55;7.60;;;4.10;99.90;;;;;;4983014;28;20077;-72
2022/03/20 01:24:50;;;;;;;15.02;7.47;;;4.10;99.90;;;;;;4957562;28;127456;-73
2022/03/20 01:27:17;;;;;;;17.60;8.30;;;4.10;99.90;;;;;;4999198;28;20061;-73
2022/03/20 01:29:43;;;;;;;17.48;7.88;;;4.00;99.90;;;;;;4936635;28;274476;-73
2022/03/20 01:32:10;;;;;;;17.23;7.75;;;4.00;99.90;;;;;;4982576;28;20054;-72
2022/03/20 01:34:37;;;;;;;17.13;8.65;;;4.00;99.90;;;;;;4938125;28;276136;-72
2022/03/20 01:37:04;;;;;;;16.33;8.30;;;3.90;99.90;;;;;;4973019;28;20053;-73
2022/03/20 01:39:30;;;;;;;18.65;8.25;;;3.90;99.90;;;;;;4954033;28;20047;-72
2022/03/20 01:41:57;;;;;;;16.27;8.32;;;3.90;99.90;;;;;;4974816;28;20066;-72
2022/03/20 01:44:31;;;;;;;19.55;8.15;;;3.90;99.90;;;;;;4945678;28;182884;-72
2022/03/20 01:46:58;;;;;;;14.93;7.65;;;3.90;99.90;;;;;;4962668;28;20429;-72
2022/03/20 01:49:25;;;;;;;17.13;8.30;;;3.80;99.90;;;;;;4934564;28;94330;-72
2022/03/20 01:54:47;;;;;;;17.15;8.13;;;3.80;99.90;;;;;;4946089;28;125170;-73
2022/03/20 01:57:16;;;;;;;17.70;8.45;;;3.80;99.90;;;;;;4984752;28;20055;-73
2022/03/20 01:59:43;;;;;;;20.88;8.98;;;3.70;99.90;;;;;;4943350;28;168915;-73
2022/03/20 02:02:10;;;;;;;18.25;8.68;;;3.70;99.90;;;;;;4961205;28;20058;-73
2022/03/20 02:04:37;;;;;;;15.48;8.38;;;3.70;99.90;;;;;;4934889;28;268422;-73
2022/03/20 02:07:04;;;;;;;16.27;8.55;;;3.70;99.90;;;;;;4977284;28;20061;-73
2022/03/20 02:09:31;;;;;;;16.40;8.75;;;3.70;99.90;;;;;;4939659;28;20882;-73
2022/03/20 02:11:58;;;;;;;17.35;8.75;;;3.70;99.90;;;;;;4961045;28;20059;-73
2022/03/20 02:14:25;;;;;;;16.15;9.27;;;3.70;99.90;;;;;;4950276;28;205678;-73
2022/03/20 02:16:53;;;;;;;17.08;9.32;;;3.70;99.90;;;;;;4983716;28;20050;-73
2022/03/20 02:19:19;;;;;;;20.15;9.90;;;3.60;99.90;;;;;;4976018;28;22004;-73
2022/03/20 02:21:47;;;;;;;18.05;9.50;;;3.60;99.90;;;;;;4951053;28;20045;-73
2022/03/20 02:24:44;;;;;;;17.60;9.10;;;3.60;99.90;;;;;;4984698;28;244745;-73
2022/03/20 02:27:17;;;;;;;18.67;9.35;;;3.50;99.90;;;;;;4941563;28;20625;-73
2022/03/20 02:29:46;;;;;;;18.67;8.75;;;3.50;99.90;;;;;;4951138;28;230711;-73
2022/03/20 02:32:13;;;;;;;18.60;9.15;;;3.50;99.90;;;;;;4959013;28;20042;-73
2022/03/20 02:34:40;;;;;;;18.83;9.30;;;3.40;99.90;;;;;;4925568;28;25155;-72
2022/03/20 02:37:06;;;;;;;16.80;9.10;;;3.40;99.90;;;;;;4968925;28;20061;-72
2022/03/20 02:39:33;;;;;;;18.08;9.48;;;3.40;99.90;;;;;;4943589;28;36382;-72
2022/03/20 02:42:05;;;;;;;20.52;9.65;;;3.40;99.90;;;;;;4952848;28;20139;-72
2022/03/20 02:44:57;;;;;;;19.73;9.68;;;3.30;99.90;;;;;;4943234;28;20221;-72
2022/03/20 02:47:25;;;;;;;19.63;9.68;;;3.30;99.90;;;;;;4968748;28;20046;-73
2022/03/20 02:49:54;;;;;;;18.45;9.80;;;3.30;99.90;;;;;;4941262;28;261143;-73
2022/03/20 02:52:24;;;;;;;20.73;10.13;;;3.30;99.90;;;;;;4995118;28;20042;-73
2022/03/20 02:54:52;;;;;;;17.85;9.02;;;3.30;99.90;;;;;;4941702;28;82285;-73
2022/03/20 02:57:19;;;;;;;20.65;10.75;;;3.20;99.90;;;;;;4987230;28;20046;-73
2022/03/20 02:59:45;;;;;;;19.83;10.15;;;3.20;99.90;;;;;;4929707;28;247693;-73
2022/03/20 03:02:11;;;;;;;18.83;10.15;;;3.20;99.90;;;;;;4971398;28;20058;-73
2022/03/20 03:04:37;;;;;;;20.95;10.77;;;3.30;99.90;;;;;;4927300;28;267770;-73
2022/03/20 03:07:04;;;;;;;18.52;9.60;;;3.20;99.90;;;;;;4965611;28;20061;-73
2022/03/20 03:12:15;;;;;;;21.58;10.57;;;3.20;99.90;;;;;;4991313;28;20081;-73
2022/03/20 03:17:28;;;;;;;22.77;10.77;;;3.10;99.90;;;;;;4966622;28;20058;-72
2022/03/20 03:19:55;;;;;;;21.23;10.85;;;3.10;99.90;;;;;;4949134;28;251090;-73
2022/03/20 03:22:26;;;;;;;20.13;10.40;;;3.10;99.90;;;;;;4986935;28;20405;-73
2022/03/20 03:24:54;;;;;;;19.65;10.50;;;3.10;99.90;;;;;;4942598;28;150238;-73
2022/03/20 03:27:20;;;;;;;21.70;10.85;;;3.10;99.90;;;;;;4979338;28;20058;-73
2022/03/20 03:29:47;;;;;;;23.40;11.27;;;3.00;99.90;;;;;;4949916;28;274288;-73
2022/03/20 03:32:13;;;;;;;22.27;11.20;;;3.00;99.90;;;;;;4995572;28;20053;-72
2022/03/20 03:37:23;;;;;;;18.20;10.48;;;2.90;99.90;;;;;;4977306;28;20058;-73
2022/03/20 03:39:49;;;;;;;20.45;10.70;;;2.90;99.90;;;;;;4942052;28;229138;-73
2022/03/20 03:42:16;;;;;;;20.13;11.25;;;2.90;99.90;;;;;;4979559;28;20058;-72
2022/03/20 03:44:42;;;;;;;22.40;12.02;;;2.80;99.90;;;;;;4956920;28;77275;-73
2022/03/20 03:47:08;;;;;;;20.33;11.48;;;2.90;99.90;;;;;;4977160;28;20050;-73
2022/03/20 03:49:34;;;;;;;22.02;11.85;;;2.80;99.90;;;;;;4947605;28;240256;-73
2022/03/20 03:52:01;;;;;;;20.13;11.55;;;2.80;99.90;;;;;;4971521;28;20431;-72
2022/03/20 03:54:29;;;;;;;22.40;12.07;;;2.80;99.90;;;;;;4928637;28;243003;-72
2022/03/20 03:56:55;;;;;;;19.42;11.32;;;2.80;99.90;;;;;;4972931;28;20047;-73
2022/03/20 03:59:21;;;;;;;24.40;12.07;;;2.80;99.90;;;;;;4950571;28;258122;-73
2022/03/20 04:01:48;;;;;;;22.45;12.52;;;2.80;99.90;;;;;;4983601;28;20050;-74
2022/03/20 04:04:14;;;;;;;24.80;11.73;;;2.70;99.90;;;;;;4958928;28;134426;-74
2022/03/20 04:06:41;;;;;;;30.40;12.68;;;2.70;99.90;;;;;;4945029;28;20166;-74
2022/03/20 04:09:07;;;;;;;21.40;12.10;;;2.70;99.90;;;;;;4969579;28;253352;-72
2022/03/20 04:11:34;;;;;;;22.80;12.98;;;2.60;99.90;;;;;;4957991;28;20042;-72
2022/03/20 04:14:00;;;;;;;21.38;12.45;;;2.60;99.90;;;;;;4966663;28;267971;-73
2022/03/20 04:16:26;;;;;;;24.20;12.00;;;2.60;99.90;;;;;;4969276;28;20048;-74
2022/03/20 04:18:52;;;;;;;21.80;12.13;;;2.60;99.90;;;;;;4965591;28;253927;-73
2022/03/20 04:21:18;;;;;;;21.10;12.65;;;2.60;99.90;;;;;;4974192;28;20049;-73
2022/03/20 04:23:49;;;;;;;21.48;12.68;;;2.60;99.90;;;;;;4981929;28;20411;-74
2022/03/20 04:26:20;;;;;;;22.42;12.32;;;2.60;99.90;;;;;;4946816;28;20128;-73
2022/03/20 04:28:47;;;;;;;;;;;2.50;99.90;;;;;;4987030;28;268594;-73
2022/03/20 04:31:15;;;;;;;23.17;12.77;;;2.50;99.90;;;;;;4948584;28;19918;-73
2022/03/20 04:33:47;;;;;;;23.90;13.30;;;2.50;99.90;;;;;;4983803;28;20059;-72
2022/03/20 04:36:14;;;;;;;23.95;12.77;;;2.50;99.90;;;;;;4948391;28;20054;-73
2022/03/20 04:38:41;;;;;;;24.85;13.90;;;2.40;99.90;;;;;;4981306;28;20050;-73
2022/03/20 04:41:07;;;;;;;24.02;13.60;;;2.40;99.90;;;;;;4915178;28;97964;-72
2022/03/20 04:43:33;;;;;;;25.20;14.07;;;2.40;99.90;;;;;;4963144;28;20046;-72
2022/03/20 04:45:59;;;;;;;24.70;13.65;;;2.40;99.90;;;;;;4935822;28;246285;-73
2022/03/20 04:59:25;;;;;;;25.58;14.50;;;2.30;99.90;;;;;;4955554;28;187291;-73
2022/03/20 05:01:51;;;;;;;22.40;14.02;;;2.40;99.90;;;;;;5000218;28;20487;-73
2022/03/20 05:04:18;;;;;;;25.90;14.48;;;2.30;99.90;;;;;;4942720;28;253553;-73
2022/03/20 05:06:44;;;;;;;26.17;14.65;;;2.30;99.90;;;;;;4936247;28;20050;-73
2022/03/20 05:14:41;;;;;;;26.02;14.55;;;2.20;99.90;;;;;;4959530;28;46856;-72
2022/03/20 05:17:08;;;;;;;26.77;14.75;;;2.20;99.90;;;;;;4968299;28;20050;-72
2022/03/20 05:19:38;;;;;;;22.20;14.40;;;2.20;99.90;;;;;;4935276;28;225452;-72
2022/03/20 05:22:06;;;;;;;22.42;14.35;;;2.20;99.90;;;;;;4956129;28;20046;-72
2022/03/20 05:24:35;;;;;;;26.95;15.60;;;2.20;99.90;;;;;;4939716;28;178332;-72
2022/03/20 05:27:01;;;;;;;23.73;15.18;;;2.20;99.90;;;;;;4978695;28;20062;-72
2022/03/20 05:29:28;;;;;;;27.52;14.82;;;2.20;99.90;;;;;;4955395;28;159846;-72
2022/03/20 05:31:55;;;;;;;25.02;14.38;;;2.20;99.90;;;;;;4975467;28;20047;-72
2022/03/20 05:34:22;;;;;;;26.00;15.00;;;2.20;99.90;;;;;;4947137;28;159814;-72
2022/03/20 05:36:49;;;;;;;27.63;14.50;;;2.20;99.90;;;;;;4996427;28;20051;-72
2022/03/20 05:39:15;;;;;;;25.05;15.32;;;2.20;99.90;;;;;;4990264;28;86010;-72
2022/03/20 05:41:48;;;;;;;22.38;14.52;;;2.10;99.90;;;;;;4933580;28;20060;-73
2022/03/20 05:44:23;;;;;;;28.17;15.95;;;2.20;99.90;;;;;;4963094;28;187717;-71
2022/03/20 05:46:50;;;;;;;28.33;15.60;;;2.20;99.90;;;;;;4931761;28;20042;-72
2022/03/20 05:49:19;;;;;;;27.83;16.45;;;2.20;99.90;;;;;;4952653;28;58464;-72
2022/03/20 05:51:46;;;;;;;26.02;15.35;;;2.20;99.90;;;;;;4959789;28;20054;-71
2022/03/20 05:54:15;;;;;;;28.67;15.68;;;2.20;99.90;;;;;;4975458;28;31154;-73
2022/03/20 05:59:26;;;;;;;28.90;15.98;;;2.20;99.90;;;;;;4935562;28;250950;-72
2022/03/20 06:01:53;;;;;;;27.73;16.25;;;2.10;99.90;;;;;;4980595;28;20057;-72
2022/03/20 06:04:20;;;;;;;25.67;16.17;;;2.20;99.90;;;;;;4945556;28;112692;-72
2022/03/20 06:06:48;;;;;;;26.85;16.90;;;2.20;99.90;;;;;;4973341;28;20057;-73
2022/03/20 06:09:15;;;;;;;25.27;16.73;;;2.20;99.90;;;;;;4974313;28;263988;-73
2022/03/20 06:11:42;;;;;;;27.75;16.27;;;2.20;99.90;;;;;;4959178;28;20174;-73
2022/03/20 06:14:08;;;;;;;29.70;16.73;;;2.20;99.90;;;;;;4970139;28;460841;-73
2022/03/20 06:16:36;;;;;;;29.92;17.55;;;2.20;99.90;;;;;;4971061;28;20046;-73
2022/03/20 06:19:05;;;;;;;34.65;16.95;;;2.20;99.90;;;;;;4983849;28;262415;-73
2022/03/20 06:21:31;;;;;;;30.27;16.90;;;2.20;99.90;;;;;;4938325;28;20491;-73
2022/03/20 06:24:00;;;;;;;32.10;17.77;;;2.30;99.90;;;;;;4946816;28;249460;-73
2022/03/20 06:26:26;;;;;;;28.27;18.52;;;2.30;99.90;;;;;;4957412;28;20415;-72
2022/03/20 06:28:53;;;;;;;27.00;17.25;;;2.30;99.90;;;;;;4950579;28;250737;-73
2022/03/20 06:31:20;;;;;;;27.55;17.15;;;2.30;99.90;;;;;;4944222;28;20043;-73
2022/03/20 06:33:46;;;;;;;27.02;16.73;;;2.40;99.90;;;;;;4998161;28;20138;-73
2022/03/20 06:36:14;;;;;;;28.45;17.67;;;2.40;99.90;;;;;;4952244;28;21574;-74
2022/03/20 06:38:41;;;;;;;28.65;17.42;;;2.40;99.90;;;;;;4963856;28;20512;-73
2022/03/20 06:41:11;;;;;;;32.63;20.45;;;2.50;99.90;;;;;;4941842;28;172104;-73
2022/03/20 06:43:38;;;;;;;31.70;18.73;;;2.50;99.90;;;;;;4974655;28;20411;-73
2022/03/20 06:46:05;;;;;;;27.92;17.65;;;2.60;99.90;;;;;;4940243;28;264230;-73
2022/03/20 06:48:32;;;;;;;28.77;17.90;;;2.60;99.90;;;;;;4966354;28;20046;-73
2022/03/20 06:50:59;;;;;;;27.73;17.08;;;2.60;99.90;;;;;;4944140;28;166419;-73
2022/03/20 06:53:26;;;;;;;27.98;16.92;;;2.60;99.90;;;;;;5011248;28;20054;-73
2022/03/20 06:55:52;;;;;;;25.70;16.80;;;2.70;99.90;;;;;;4934253;28;20063;-73
2022/03/20 06:58:21;;;;;;;27.02;17.75;;;2.70;99.90;;;;;;4987148;28;20443;-73
2022/03/20 07:00:47;;;;;;;26.63;18.17;;;2.80;99.90;;;;;;4922670;28;140461;-73
2022/03/20 07:03:13;;;;;;;27.45;17.60;;;2.80;99.90;;;;;;4983861;28;20543;-73
2022/03/20 07:05:39;;;;;;;28.33;17.88;;;2.90;99.90;;;;;;4929013;28;180703;-72
2022/03/20 07:08:06;;;;;;;26.88;17.23;;;2.90;99.90;;;;;;4983824;28;20419;-73
2022/03/20 07:10:33;;;;;;;27.65;17.73;;;3.00;99.90;;;;;;4950657;28;158706;-72
2022/03/20 07:15:48;;;;;;;28.98;17.70;;;3.10;99.90;;;;;;4952635;28;76741;-73
2022/03/20 07:18:17;;;;;;;27.23;17.90;;;3.20;99.90;;;;;;4978910;28;20452;-73
2022/03/20 07:20:45;;;;;;;26.52;17.33;;;3.30;99.90;;;;;;4905606;28;70015;-72
2022/03/20 07:23:12;;;;;;;28.08;17.00;;;3.40;99.90;;;;;;4978603;28;20054;-75
2022/03/20 07:31:12;;;;;;;32.72;17.75;;;3.70;99.90;;;;;;4938329;28;20042;-75
2022/03/20 07:33:39;;;;;;;32.22;17.60;;;3.70;99.90;;;;;;4978491;28;20057;-75
2022/03/20 07:36:06;;;;;;;29.90;17.73;;;3.70;99.90;;;;;;4930016;28;71914;-75
2022/03/20 07:38:33;;;;;;;33.95;16.75;;;3.80;99.90;;;;;;4989275;28;20057;-76
2022/03/20 07:41:00;;;;;;;29.23;17.23;;;3.80;99.90;;;;;;4933818;28;171066;-76
2022/03/20 07:43:26;;;;;;;26.55;17.88;;;3.80;99.90;;;;;;4993938;28;20057;-76
2022/03/20 07:45:53;;;;;;;27.88;18.00;;;3.90;99.90;;;;;;4931068;28;133831;-75
2022/03/20 07:48:23;;;;;;;27.90;17.15;;;4.00;99.90;;;;;;4990603;28;20062;-76
2022/03/20 07:50:50;;;;;;;30.95;16.88;;;4.00;99.90;;;;;;4957936;28;266800;-74
2022/03/20 07:53:17;;;;;;;30.58;17.70;;;4.10;99.90;;;;;;4994746;28;20050;-75
2022/03/20 07:55:47;;;;;;;26.65;17.88;;;4.10;99.90;;;;;;4957801;28;264577;-74
2022/03/20 07:58:18;;;;;;;27.67;17.85;;;4.20;99.90;;;;;;4994136;28;20038;-74
2022/03/20 08:00:44;;;;;;;25.02;16.95;;;4.20;99.90;;;;;;4934132;28;68375;-75
2022/03/20 08:03:10;;;;;;;26.80;17.73;;;4.30;99.90;;;;;;4986765;28;20042;-76
2022/03/20 08:05:36;;;;;;;28.73;17.23;;;4.40;99.90;;;;;;4927886;28;216338;-75
2022/03/20 08:08:03;;;;;;;27.83;18.27;;;4.50;99.90;;;;;;4965165;28;20332;-75
2022/03/20 08:10:29;;;;;;;27.75;17.95;;;4.70;99.90;;;;;;4935876;28;203795;-75
2022/03/20 08:12:56;;;;;;;30.75;16.95;;;4.80;99.90;;;;;;4974064;28;20511;-75
2022/03/20 08:15:24;;;;;;;27.27;17.15;;;5.00;99.90;;;;;;4965243;28;256658;-74
2022/03/20 08:17:51;;;;;;;27.33;17.65;;;5.10;99.90;;;;;;4968768;28;20058;-75
2022/03/20 08:20:17;;;;;;;30.15;17.48;;;5.20;99.90;;;;;;4945920;28;260538;-76
2022/03/20 08:22:44;;;;;;;29.67;17.25;;;5.40;99.90;;;;;;4972541;28;20049;-76
2022/03/20 08:25:11;;;;;;;28.35;17.35;;;5.80;99.90;;;;;;4953345;28;241477;-74
2022/03/20 08:27:44;;;;;;;25.27;17.02;;;6.30;99.90;;;;;;4986272;28;20476;-74
2022/03/20 08:30:15;;;;;;;26.38;17.08;;;6.30;99.30;;;;;;4941954;28;140488;-74
2022/03/20 08:32:47;;;;;;;27.35;16.65;;;6.80;98.20;;;;;;4977242;28;20046;-75
2022/03/20 08:35:15;;;;;;;25.15;16.85;;;7.20;98.40;;;;;;4951898;28;106835;-74
2022/03/20 08:37:43;;;;;;;24.92;17.25;;;7.60;97.00;;;;;;4975163;28;20065;-75
2022/03/20 08:40:17;;;;;;;28.77;17.33;;;7.80;96.70;;;;;;4933410;28;219774;-74
2022/03/20 08:42:47;;;;;;;26.88;17.15;;;8.10;96.50;;;;;;5000435;28;20063;-75
2022/03/20 08:45:15;;;;;;;25.23;17.25;;;8.40;96.70;;;;;;4930327;28;185256;-71
2022/03/20 08:47:43;;;;;;;26.15;17.70;;;8.50;93.60;;;;;;4987467;28;20046;-77
2022/03/20 08:50:10;;;;;;;26.13;16.75;;;8.50;92.60;;;;;;4934210;28;99086;-76
2022/03/20 08:52:37;;;;;;;27.38;17.55;;;8.10;93.10;;;;;;4974857;28;20051;-75
2022/03/20 08:55:09;;;;;;;24.77;16.95;;;7.90;90.60;;;;;;4930800;28;224581;-77
2022/03/20 08:57:38;;;;;;;24.85;17.80;;;8.10;90.30;;;;;;5005196;28;20077;-76
2022/03/20 09:00:05;;;;;;;24.85;16.83;;;8.40;91.30;;;;;;4952086;28;31744;-78
2022/03/20 09:02:31;;;;;;;25.35;17.40;;;8.80;90.80;;;;;;4992582;28;20058;-77
2022/03/20 09:04:58;;;;;;;27.08;17.25;;;9.10;87.00;;;;;;4924441;28;118987;-76
2022/03/20 09:07:24;;;;;;;27.35;17.77;;;9.30;84.80;;;;;;4984295;28;20056;-77
2022/03/20 09:09:50;;;;;;;24.52;17.63;;;9.60;84.10;;;;;;4937202;28;95832;-76
2022/03/20 09:12:16;;;;;;;24.67;17.42;;;9.90;85.80;;;;;;4973996;28;20063;-77
2022/03/20 09:14:42;;;;;;;26.52;17.05;;;10.00;81.50;;;;;;4928479;28;179655;-76
2022/03/20 09:19:55;;;;;;;27.40;17.63;;;10.40;78.00;;;;;;4944088;28;268646;-77
2022/03/20 09:22:21;;;;;;;24.73;17.50;;;10.50;76.20;;;;;;5005478;28;20050;-75
2022/03/20 09:24:47;;;;;;;24.50;18.17;;;10.80;76.10;;;;;;4943139;28;53839;-78
2022/03/20 09:27:15;;;;;;;24.33;17.40;;;11.00;75.50;;;;;;4983619;28;20046;-77
2022/03/20 09:29:41;;;;;;;25.90;17.58;;;11.10;68.20;;;;;;4946836;28;52866;-76
2022/03/20 09:32:08;;;;;;;22.70;16.88;;;11.30;72.60;;;;;;4959069;28;20050;-76
2022/03/20 09:34:34;;;;;;;24.67;17.42;;;11.60;65.30;;;;;;4954283;28;244959;-74
2022/03/20 09:37:01;;;;;;;26.13;17.80;;;11.70;66.60;;;;;;4983630;28;20061;-77
2022/03/20 09:39:27;;;;;;;26.23;17.73;;;11.60;64.80;;;;;;4950119;28;273163;-77
2022/03/20 09:41:55;;;;;;;27.00;17.98;;;11.70;64.00;;;;;;4992135;28;20058;-77
2022/03/20 09:44:24;;;;;;;25.10;18.50;;;11.80;59.30;;;;;;4941431;28;277705;-76
2022/03/20 09:46:50;;;;;;;26.83;18.98;;;11.90;61.30;;;;;;4981619;28;20058;-76
2022/03/20 09:49:20;;;;;;;26.63;18.05;;;12.20;62.10;;;;;;4972017;28;133856;-76
2022/03/20 09:51:46;;;;;;;25.35;17.95;;;12.50;62.90;;;;;;4953486;28;20053;-76
2022/03/20 09:54:14;;;;;;;25.50;17.90;;;12.90;63.00;;;;;;4978989;28;144665;-76
2022/03/20 09:56:42;;;;;;;28.33;19.02;;;13.00;61.30;;;;;;4939812;28;20069;-76
2022/03/20 09:59:10;;;;;;;25.33;18.45;;;13.20;60.30;;;;;;4989053;28;255122;-76
2022/03/20 10:01:37;;;;;;;27.58;19.42;;;13.20;58.70;;;;;;4952323;28;20049;-77
2022/03/20 10:04:07;;;;;;;28.42;19.05;;;13.40;56.10;;;;;;4969253;28;273819;-77
2022/03/20 10:06:41;;;;;;;26.85;19.10;;;13.40;54.90;;;;;;4943444;28;20098;-77
2022/03/20 10:09:12;;;;;;;27.13;18.27;;;13.60;54.40;;;;;;4971601;28;268224;-76
2022/03/20 10:11:48;;;;;;;26.42;18.80;;;13.50;53.20;;;;;;4946786;28;20054;-76
2022/03/20 10:14:22;;;;;;;26.40;18.67;;;13.50;53.50;;;;;;4966253;28;922098;-77
2022/03/20 10:17:11;;;;;;;25.60;19.25;;;13.70;53.60;;;;;;4954416;28;20057;-76
2022/03/20 10:19:38;;;;;;;27.00;18.75;;;14.00;49.40;;;;;;4950445;28;231284;-79
2022/03/20 10:22:06;;;;;;;25.70;19.23;;;13.90;51.10;;;;;;4998956;28;20061;-79
2022/03/20 10:24:39;;;;;;;27.75;18.50;;;13.80;52.00;;;;;;4957991;28;227000;-79
2022/03/20 10:27:10;;;;;;;27.48;18.38;;;14.10;50.40;;;;;;4993450;28;20046;-78
2022/03/20 10:29:49;;;;;;;26.52;18.92;;;14.40;51.80;;;;;;4977366;28;233835;-79
2022/03/20 10:32:16;;;;;;;30.83;19.38;;;14.60;50.00;;;;;;4996536;28;20065;-78
2022/03/20 10:34:56;;;;;;;27.10;19.83;;;14.80;49.30;;;;;;4945275;28;190306;-79
2022/03/20 10:37:52;;;;;;;27.55;19.65;;;15.10;46.90;;;;;;4996364;28;20058;-79
2022/03/20 10:40:21;;;;;;;28.83;19.58;;;15.20;46.30;;;;;;4941391;28;135191;-78
2022/03/20 10:43:06;;;;;;;25.17;19.20;;;15.00;48.90;;;;;;4977252;28;20054;-78
2022/03/20 10:45:48;;;;;;;27.77;19.25;;;15.10;44.40;;;;;;4939487;28;163818;-78
2022/03/20 10:48:19;;;;;;;26.98;19.30;;;14.80;44.60;;;;;;4990103;28;20050;-79
2022/03/20 10:50:47;;;;;;;25.52;19.42;;;15.00;46.40;;;;;;4950539;28;113361;-79
2022/03/20 10:53:13;;;;;;;29.05;19.90;;;15.00;45.20;;;;;;4994841;28;20030;-79
2022/03/20 10:55:39;;;;;;;29.23;20.02;;;15.10;47.10;;;;;;4951599;28;72108;-77
2022/03/20 10:58:26;;;;;;;28.20;19.92;;;15.40;47.40;;;;;;5007053;28;20051;-78
2022/03/20 11:00:53;;;;;;;25.23;19.40;;;15.90;44.20;;;;;;4935603;28;232602;-78
2022/03/20 11:03:22;;;;;;;31.17;19.48;;;15.70;45.20;;;;;;4978395;28;20058;-77
2022/03/20 11:05:50;;;;;;;26.45;19.92;;;15.80;45.40;;;;;;4931377;28;139385;-78
2022/03/20 11:08:23;;;;;;;25.55;19.23;;;15.90;44.10;;;;;;5008855;28;20054;-79
2022/03/20 11:10:52;;;;;;;25.30;18.52;;;15.90;44.50;;;;;;4943842;28;127892;-78
2022/03/20 11:13:21;;;;;;;27.95;19.67;;;16.10;43.50;;;;;;5008772;28;20059;-79
2022/03/20 11:15:49;;;;;;;25.73;19.45;;;16.00;43.00;;;;;;4960065;28;264512;-79
2022/03/20 11:18:15;;;;;;;24.92;19.75;;;16.20;44.50;;;;;;5025563;28;20046;-78
2022/03/20 11:20:46;;;;;;;26.58;19.85;;;16.30;43.90;;;;;;4966138;28;255179;-80
2022/03/20 11:23:18;;;;;;;25.35;20.20;;;16.50;43.90;;;;;;4991908;28;20065;-78
2022/03/20 11:25:45;;;;;;;27.83;20.17;;;16.60;42.30;;;;;;4964821;28;113590;-78
2022/03/20 11:28:14;;;;;;;24.13;18.63;;;16.80;42.70;;;;;;4989040;28;20057;-78
2022/03/20 11:30:44;;;;;;;27.10;19.75;;;16.60;41.30;;;;;;4931644;28;264548;-78
2022/03/20 11:33:11;;;;;;;25.27;20.10;;;16.60;42.80;;;;;;4979393;28;20051;-78
2022/03/20 11:35:38;;;;;;;29.23;19.92;;;16.60;42.20;;;;;;4963798;28;132434;-79
2022/03/20 11:38:22;;;;;;;26.10;20.08;;;16.60;41.20;;;;;;4979632;28;20053;-79
2022/03/20 11:41:09;;;;;;;25.92;20.13;;;16.60;41.00;;;;;;4934084;28;239027;-77
2022/03/20 11:43:38;;;;;;;28.40;19.85;;;16.80;41.10;;;;;;4978968;28;20050;-79
2022/03/20 11:46:34;;;;;;;28.13;20.55;;;17.00;42.30;;;;;;4939323;28;204850;-78
2022/03/20 11:49:19;;;;;;;26.15;20.40;;;17.30;41.20;;;;;;4960331;28;263431;-79
2022/03/20 11:52:07;;;;;;;25.77;19.67;;;17.20;39.70;;;;;;4950655;28;20038;-78
2022/03/20 11:54:41;;;;;;;25.33;20.50;;;17.30;40.00;;;;;;4945021;28;31845;-78
2022/03/20 11:57:26;;;;;;;30.17;21.13;;;17.40;40.50;;;;;;4978963;28;20050;-77
2022/03/20 11:59:57;;;;;;;26.42;20.20;;;17.80;40.50;;;;;;4928176;28;100385;-77
2022/03/20 12:02:48;;;;;;;31.13;21.30;;;17.60;40.20;;;;;;4983192;28;20058;-78
2022/03/20 12:05:56;;;;;;;23.80;19.75;;;17.60;38.40;;;;;;4918408;28;121918;-78
2022/03/20 12:08:43;;;;;;;28.35;18.30;;;17.50;38.60;;;;;;4965336;28;20050;-77
2022/03/20 12:11:29;;;;;;;26.15;19.92;;;17.10;38.90;;;;;;4937482;28;141663;-77
2022/03/20 12:14:19;;;;;;;26.83;20.77;;;17.20;39.60;;;;;;4976981;28;104895;-76
2022/03/20 12:16:52;;;;;;;27.25;19.98;;;16.80;39.50;;;;;;4952116;28;20484;-75
2022/03/20 12:19:20;;;;;;;24.60;19.63;;;17.00;39.50;;;;;;4965189;28;20540;-77
2022/03/20 12:22:21;;;;;;;26.23;20.17;;;17.10;39.70;;;;;;4955358;28;20042;-78
2022/03/20 12:24:57;;;;;;;29.95;21.02;;;17.20;39.10;;;;;;4921772;28;63141;-78
2022/03/20 12:27:24;;;;;;;27.15;20.20;;;17.40;40.10;;;;;;4980720;28;20551;-77
2022/03/20 12:30:10;;;;;;;29.23;21.52;;;17.90;41.50;;;;;;4923096;28;102383;-77
2022/03/20 12:32:55;;;;;;;28.23;21.20;;;17.70;38.80;;;;;;4973485;28;20046;-77
2022/03/20 12:35:21;;;;;;;25.58;20.23;;;17.30;40.00;;;;;;4927865;28;89553;-77
2022/03/20 12:37:48;;;;;;;26.95;20.33;;;17.50;39.60;;;;;;4971589;28;20459;-77
2022/03/20 12:40:31;;;;;;;25.88;20.90;;;17.20;40.00;;;;;;4918580;28;142329;-77
2022/03/20 12:43:10;;;;;;;28.10;20.23;;;17.30;40.00;;;;;;4972163;28;20059;-77
2022/03/20 12:45:47;;;;;;;29.10;19.27;;;17.20;39.80;;;;;;4944395;28;20457;-76
2022/03/20 12:48:15;;;;;;;25.75;20.27;;;17.10;39.80;;;;;;4986908;28;20061;-77
2022/03/20 12:50:47;;;;;;;27.85;20.65;;;16.80;39.80;;;;;;4969209;28;166538;-77
2022/03/20 12:53:16;;;;;;;27.65;20.67;;;16.10;40.70;;;;;;4987720;28;20058;-77
2022/03/20 12:55:48;;;;;;;25.13;18.83;;;15.70;40.60;;;;;;4944782;28;51061;-78
2022/03/20 12:58:17;;;;;;;29.05;20.60;;;15.30;40.90;;;;;;4979583;28;20049;-78
2022/03/20 13:00:43;;;;;;;27.10;21.05;;;14.90;41.40;;;;;;4951463;28;42346;-77
2022/03/20 13:03:14;;;;;;;28.83;21.60;;;14.80;42.40;;;;;;4968646;28;20396;-78
2022/03/20 13:05:57;;;;;;;30.95;20.77;;;14.60;42.80;;;;;;4905093;28;241243;-78
2022/03/20 13:08:38;;;;;;;28.08;21.42;;;14.40;43.10;;;;;;4983476;28;20429;-78
2022/03/20 13:11:48;;;;;;;29.83;20.30;;;14.50;42.90;;;;;;4944189;28;44420;-77
2022/03/20 13:14:01;;;;;;;27.75;20.65;;;14.70;43.20;;;;;;4997222;28;275240;-77
2022/03/20 13:16:28;;;;;;;27.55;21.08;;;15.30;42.90;;;;;;4953126;28;20034;-77
2022/03/20 13:18:54;;;;;;;27.73;21.17;;;15.80;42.60;;;;;;4966891;28;264154;-78
2022/03/20 13:21:21;;;;;;;30.02;21.50;;;15.70;42.40;;;;;;4959993;28;20297;-78
2022/03/20 13:23:48;;;;;;;30.08;21.23;;;15.40;42.20;;;;;;4963771;28;270934;-78
2022/03/20 13:26:18;;;;;;;27.27;21.25;;;15.00;42.60;;;;;;4957819;28;20058;-78